Bookmark and Share
Track history (hours):
 

Fidato

Last reported at 2014-Apr-16 04:33 UTC. Time now 2014-Apr-16 05:28 UTC.
Position N 51°56' E 004°02'.

Length 135 m; draft 2.5 m.

Type: Ship. MMSI: 244670975.

NotesDate/timePositionNaut miles runAvg speedWind from/ knotsBaromVisibWave heightAir tempDewpointWater temp
2014-Apr-16 04:33N 51°56' E 004°02'0 0.0
2014-Apr-16 03:27N 51°56' E 004°02'0 0.0
2014-Apr-16 02:33N 51°56' E 004°02'0 0.0
2014-Apr-16 01:33N 51°56' E 004°02'0 0.0
2014-Apr-16 00:33N 51°56' E 004°02'0 0.0
2014-Apr-15 23:33N 51°56' E 004°02'0 0.0
2014-Apr-15 22:33N 51°56' E 004°02'0 0.0
2014-Apr-15 21:33N 51°56' E 004°02'1 0.6
2014-Apr-15 20:29N 51°56' E 004°03'6 6.4
2014-Apr-15 19:33N 51°56' E 004°12'1010.1
2014-Apr-15 18:33N 51°54' E 004°28'8 7.9
2014-Apr-15 17:33N 51°54' E 004°41'8 7.8
2014-Apr-15 16:33N 51°56' E 004°53'6 6.0
2014-Apr-15 15:33N 51°58' E 005°02'4 4.1
2014-Apr-15 14:33N 52°01' E 005°07'5 2.7
2014-Apr-15 12:34N 52°06' E 005°04'0 0.3
2014-Apr-15 11:34N 52°07' E 005°04'0 0.0
2014-Apr-15 10:34N 52°07' E 005°04'0 0.0
2014-Apr-15 09:34N 52°07' E 005°04'0 0.0
2014-Apr-15 08:34N 52°07' E 005°04'0 0.0
2014-Apr-15 07:34N 52°07' E 005°04'0 0.0
2014-Apr-15 06:34N 52°07' E 005°04'0 0.0
2014-Apr-15 05:34N 52°07' E 005°04'0 0.0
2014-Apr-15 03:34N 52°07' E 005°04'0 0.0
2014-Apr-15 02:34N 52°07' E 005°04'0 0.0
2014-Apr-15 01:33N 52°07' E 005°04'0 0.0
2014-Apr-15 00:33N 52°07' E 005°04'0 0.0
2014-Apr-14 23:34N 52°07' E 005°04'0 0.0
2014-Apr-14 22:34N 52°07' E 005°04'0 0.0
2014-Apr-14 21:34N 52°07' E 005°04'0 0.0
2014-Apr-14 20:34N 52°07' E 005°04'0 0.0
2014-Apr-14 19:33N 52°07' E 005°04'0 0.0
2014-Apr-14 18:33N 52°07' E 005°04'0 0.0
2014-Apr-14 17:34N 52°07' E 005°04'0 0.0
2014-Apr-14 16:34N 52°07' E 005°04'0 0.0
2014-Apr-14 15:33N 52°07' E 005°04'0 0.0
2014-Apr-14 14:34N 52°07' E 005°04'0 0.0
2014-Apr-14 13:34N 52°07' E 005°04'0 0.0
2014-Apr-14 11:33N 52°07' E 005°04'0 0.0
2014-Apr-14 10:33N 52°07' E 005°04'0 0.0
2014-Apr-14 09:33N 52°07' E 005°04'0 0.0
2014-Apr-14 08:33N 52°07' E 005°04'3 3.0
2014-Apr-14 07:33N 52°04' E 005°06'7 6.8
2014-Apr-14 06:33N 51°59' E 005°14'4 4.1
2014-Apr-14 05:33N 51°58' E 005°20'1 0.2
2014-Apr-13 22:33N 51°57' E 005°22'0 0.0
2014-Apr-13 21:33N 51°57' E 005°22'0 0.0
2014-Apr-13 20:33N 51°57' E 005°22'0 0.0
2014-Apr-13 19:33N 51°57' E 005°22'0 0.5
2014-Apr-13 18:33N 51°57' E 005°23'6 5.9
2014-Apr-13 17:33N 51°53' E 005°30'4 4.3
2014-Apr-13 16:33N 51°54' E 005°37'18 7.8
2014-Apr-13 14:17N 51°51' E 006°06'7 9.1
2014-Apr-13 13:33N 51°49' E 006°16'37 5.7
2014-Apr-13 07:07N 51°17' E 006°42'4 7.1
2014-Apr-13 06:33N 51°13' E 006°45'  
2014-Apr-07 11:09N 50°05' E 008°32'0 0.0
2014-Apr-07 09:33N 50°05' E 008°32'0 0.0
2014-Apr-07 08:28N 50°05' E 008°32'0 0.0
2014-Apr-07 06:30N 50°05' E 008°32'0 0.0
2014-Apr-07 05:33N 50°05' E 008°32'0 0.0
2014-Apr-07 04:28N 50°05' E 008°32'0 0.0
2014-Apr-07 03:32N 50°05' E 008°32'0 0.0
2014-Apr-07 02:32N 50°05' E 008°32'0 0.0
2014-Apr-07 01:32N 50°05' E 008°32'0 0.0
2014-Apr-07 00:32N 50°05' E 008°32'0 0.0
2014-Apr-06 23:33N 50°05' E 008°32'0 0.0
2014-Apr-06 22:32N 50°05' E 008°32'0 0.0
2014-Apr-06 21:32N 50°05' E 008°32'0 0.0
2014-Apr-06 20:33N 50°05' E 008°32'0 0.0
2014-Apr-06 19:33N 50°05' E 008°32'0 0.0
2014-Apr-06 18:33N 50°05' E 008°32'0 0.0
2014-Apr-06 17:32N 50°05' E 008°32'0 0.0
2014-Apr-06 16:33N 50°05' E 008°32'0 0.0
2014-Apr-06 15:32N 50°05' E 008°32'0 0.0
2014-Apr-06 14:33N 50°05' E 008°32'0 0.0
2014-Apr-06 13:32N 50°05' E 008°32'0 0.1
2014-Apr-06 12:32N 50°06' E 008°33'0 0.0
2014-Apr-06 11:32N 50°06' E 008°33'0 0.0
2014-Apr-06 10:32N 50°06' E 008°33'0 0.0
2014-Apr-06 09:32N 50°06' E 008°33'0 0.0
2014-Apr-06 08:30N 50°06' E 008°33'0 0.0
2014-Apr-06 07:33N 50°06' E 008°33'0 0.0
2014-Apr-06 06:33N 50°06' E 008°32'0 0.0
2014-Apr-06 05:33N 50°06' E 008°33'  

Dump ship's entire track history

sailing weather and tide predictions

Fidato — PB5970 — position and weather